createdAt,value
2022-09-23T00:01:11.128Z,85.89
2022-09-23T00:03:39.845Z,85.93
2022-09-23T00:06:10.674Z,86.50
2022-09-23T00:08:37.974Z,87.20
2022-09-23T00:11:10.945Z,87.04
2022-09-23T00:13:39.630Z,87.48
2022-09-23T00:16:09.394Z,87.30
2022-09-23T00:18:36.785Z,87.32
2022-09-23T00:21:09.159Z,87.70
2022-09-23T00:23:36.519Z,87.79
2022-09-23T00:26:05.758Z,87.85
2022-09-23T00:28:33.474Z,88.12
2022-09-23T00:31:04.853Z,88.00
2022-09-23T00:33:31.482Z,88.13
2022-09-23T00:36:02.769Z,87.66
2022-09-23T00:38:29.764Z,87.99
2022-09-23T00:40:57.207Z,88.50
2022-09-23T00:43:47.649Z,87.90
2022-09-23T00:46:29.244Z,88.24
2022-09-23T00:49:01.509Z,89.07
2022-09-23T00:51:34.449Z,88.44
2022-09-23T00:54:02.245Z,87.67
2022-09-23T00:56:31.375Z,87.93
2022-09-23T00:58:58.235Z,88.69
2022-09-23T01:01:25.573Z,88.95
2022-09-23T01:03:54.671Z,89.18
2022-09-23T01:06:21.638Z,89.10
2022-09-23T01:08:48.878Z,89.60
2022-09-23T01:11:37.245Z,88.72
2022-09-23T01:14:36.881Z,88.59
2022-09-23T01:17:24.613Z,88.29
2022-09-23T01:19:57.751Z,88.45
2022-09-23T01:22:48.787Z,88.83
2022-09-23T01:25:21.264Z,88.49
2022-09-23T01:28:04.316Z,89.34
2022-09-23T01:31:09.417Z,88.83
2022-09-23T01:33:54.395Z,89.61
2022-09-23T01:36:42.987Z,88.70
2022-09-23T01:39:20.963Z,88.91
2022-09-23T01:41:51.611Z,89.08
2022-09-23T01:44:30.641Z,89.07
2022-09-23T01:47:11.403Z,89.70
2022-09-23T01:49:47.407Z,89.42
2022-09-23T01:52:27.478Z,89.00
2022-09-23T01:55:31.858Z,89.29
2022-09-23T01:58:07.828Z,89.20
2022-09-23T02:00:40.783Z,89.25
2022-09-23T02:03:18.520Z,89.25
2022-09-23T02:05:48.585Z,89.33
2022-09-23T02:08:22.111Z,89.33
2022-09-23T02:11:03.950Z,90.10
2022-09-23T02:14:00.037Z,89.90
2022-09-23T02:16:41.206Z,89.56
2022-09-23T02:19:13.853Z,89.09
2022-09-23T02:21:47.083Z,89.21
2022-09-23T02:24:20.951Z,89.56
2022-09-23T02:26:55.859Z,89.80
2022-09-23T02:29:38.276Z,90.13
2022-09-23T02:32:18.608Z,90.27
2022-09-23T02:35:10.170Z,90.25
2022-09-23T02:37:49.173Z,90.43
2022-09-23T02:40:38.129Z,90.83
2022-09-23T02:43:15.276Z,90.78
2022-09-23T02:45:42.127Z,90.02
2022-09-23T02:48:35.029Z,89.50
2022-09-23T02:51:02.323Z,90.24
2022-09-23T02:53:30.517Z,90.35
2022-09-23T02:55:57.071Z,90.96
2022-09-23T02:58:24.857Z,90.67
2022-09-23T03:01:07.799Z,91.01
2022-09-23T03:03:43.206Z,90.97
2022-09-23T03:06:44.331Z,90.67
2022-09-23T03:09:19.976Z,90.59
2022-09-23T03:11:53.023Z,90.92
2022-09-23T03:14:39.307Z,90.53
2022-09-23T03:17:15.967Z,90.94
2022-09-23T03:20:01.157Z,91.13
2022-09-23T03:22:33.649Z,90.88
2022-09-23T03:25:07.133Z,91.01
2022-09-23T03:27:36.770Z,91.43
2022-09-23T03:30:05.125Z,92.26
2022-09-23T03:32:34.833Z,91.95
2022-09-23T03:35:03.886Z,92.28
2022-09-23T03:37:35.823Z,92.60
2022-09-23T03:40:17.730Z,92.68
2022-09-23T03:42:44.434Z,92.48
2022-09-23T03:45:18.317Z,92.97
2022-09-23T03:47:45.393Z,92.87
2022-09-23T03:50:13.437Z,93.44
2022-09-23T03:52:40.499Z,94.32
2022-09-23T03:55:07.918Z,94.89
2022-09-23T03:57:34.611Z,95.14
2022-09-23T04:00:01.430Z,95.03
2022-09-23T04:02:38.843Z,95.87
2022-09-23T04:05:06.584Z,95.75
2022-09-23T04:07:33.342Z,95.61
2022-09-23T04:10:00.013Z,95.67
2022-09-23T04:12:26.692Z,95.79
2022-09-23T04:14:53.453Z,95.56
2022-09-23T04:17:20.068Z,95.99
2022-09-23T04:19:46.750Z,95.64
2022-09-23T04:22:13.447Z,96.08
2022-09-23T04:24:40.013Z,96.21
2022-09-23T04:27:06.742Z,96.75
2022-09-23T04:29:33.320Z,97.11
2022-09-23T04:32:00.056Z,97.26
2022-09-23T04:34:26.805Z,97.11
2022-09-23T04:36:53.413Z,96.44
2022-09-23T04:39:20.145Z,96.39
2022-09-23T04:41:47.305Z,96.71
2022-09-23T04:44:14.664Z,97.13
2022-09-23T04:46:42.469Z,96.87
2022-09-23T04:49:09.130Z,97.18
2022-09-23T04:51:36.313Z,97.87
2022-09-23T04:54:02.985Z,98.33
2022-09-23T04:56:32.636Z,97.90
2022-09-23T04:59:01.773Z,98.36
2022-09-23T05:01:34.464Z,98.26
2022-09-23T05:04:08.459Z,97.86
2022-09-23T05:06:35.687Z,97.96
2022-09-23T05:09:05.342Z,98.87
2022-09-23T05:11:32.363Z,98.72
2022-09-23T05:13:59.297Z,98.69
2022-09-23T05:16:27.151Z,98.45
2022-09-23T05:18:54.340Z,98.05
2022-09-23T05:21:23.468Z,98.03
2022-09-23T05:23:54.398Z,98.15
2022-09-23T05:26:26.099Z,97.76
2022-09-23T05:28:53.863Z,98.34
2022-09-23T05:31:22.682Z,98.34
2022-09-23T05:33:52.152Z,97.95
2022-09-23T05:36:21.281Z,98.17
2022-09-23T05:38:50.872Z,98.35
2022-09-23T05:41:19.597Z,98.53
2022-09-23T05:43:47.270Z,98.24
2022-09-23T05:46:16.673Z,98.35
2022-09-23T05:48:45.817Z,98.26
2022-09-23T05:51:20.457Z,98.18
2022-09-23T05:53:48.312Z,97.99
2022-09-23T05:56:17.012Z,97.70
2022-09-23T05:58:44.037Z,97.98
2022-09-23T06:01:14.654Z,98.04
2022-09-23T06:03:41.523Z,97.93
2022-09-23T06:06:12.563Z,97.96
2022-09-23T06:08:39.454Z,97.75
2022-09-23T06:11:07.720Z,97.64
2022-09-23T06:13:37.275Z,97.48
2022-09-23T06:16:08.683Z,97.05
2022-09-23T06:18:37.827Z,97.01
2022-09-23T06:21:04.966Z,97.03
2022-09-23T06:23:32.299Z,96.69
2022-09-23T06:26:04.311Z,96.56
2022-09-23T06:28:32.995Z,96.41
2022-09-23T06:31:01.593Z,96.24
2022-09-23T06:33:36.034Z,95.78
2022-09-23T06:36:07.743Z,95.44
2022-09-23T06:38:35.421Z,95.32
2022-09-23T06:41:03.474Z,94.48
2022-09-23T06:43:30.473Z,94.41
2022-09-23T06:45:59.719Z,93.66
2022-09-23T06:48:27.896Z,93.49
2022-09-23T06:50:58.225Z,92.50
2022-09-23T06:53:25.418Z,91.77
2022-09-23T06:56:02.477Z,91.44
2022-09-23T06:58:31.696Z,91.10
2022-09-23T07:01:14.899Z,90.82
2022-09-23T07:03:41.683Z,90.85
2022-09-23T07:06:08.311Z,90.06
2022-09-23T07:08:35.693Z,89.25
2022-09-23T07:11:05.819Z,89.09
2022-09-23T07:13:33.573Z,87.67
2022-09-23T07:16:04.581Z,87.37
2022-09-23T07:18:36.648Z,87.37
2022-09-23T07:21:07.061Z,87.52
2022-09-23T07:23:33.995Z,87.20
2022-09-23T07:26:01.101Z,85.74
2022-09-23T07:28:29.088Z,86.07
2022-09-23T07:31:00.347Z,86.51
2022-09-23T07:33:33.051Z,86.94
2022-09-23T07:36:08.353Z,86.00
2022-09-23T07:38:36.426Z,86.08
2022-09-23T07:41:08.982Z,85.94
2022-09-23T07:43:35.982Z,85.61
2022-09-23T07:46:08.301Z,85.61
2022-09-23T07:48:36.835Z,84.93
2022-09-23T07:51:08.850Z,84.20
2022-09-23T07:53:36.025Z,84.65
2022-09-23T07:56:06.474Z,84.20
2022-09-23T07:58:34.021Z,84.38
2022-09-23T08:01:06.275Z,84.40
2022-09-23T08:03:33.244Z,84.68
2022-09-23T08:06:13.311Z,83.77
2022-09-23T08:08:43.699Z,83.35
2022-09-23T08:11:13.236Z,83.21
2022-09-23T08:13:40.498Z,83.60
2022-09-23T08:16:07.462Z,83.77
2022-09-23T08:18:34.380Z,82.89
2022-09-23T08:21:01.512Z,83.57
2022-09-23T08:23:33.313Z,82.68
2022-09-23T08:26:02.404Z,82.24
2022-09-23T08:28:29.388Z,80.45
2022-09-23T08:30:56.334Z,79.41
2022-09-23T08:33:24.038Z,78.74
2022-09-23T08:35:51.989Z,79.53
2022-09-23T08:38:19.030Z,77.78
2022-09-23T08:40:49.523Z,76.46
2022-09-23T08:43:26.482Z,73.98
2022-09-23T08:45:55.512Z,73.20
2022-09-23T08:48:32.214Z,73.16
2022-09-23T08:51:06.653Z,71.66
2022-09-23T08:53:37.622Z,70.94
2022-09-23T08:56:09.737Z,69.67
2022-09-23T08:59:13.335Z,70.02
2022-09-23T09:01:47.783Z,68.42
2022-09-23T09:04:19.113Z,68.46
2022-09-23T09:06:54.024Z,67.95
2022-09-23T09:09:29.124Z,68.28
2022-09-23T09:12:03.273Z,67.65
2022-09-23T09:14:42.453Z,66.97
2022-09-23T09:17:34.409Z,66.12
2022-09-23T09:20:23.238Z,64.09
2022-09-23T09:22:57.902Z,64.23
2022-09-23T09:25:34.097Z,63.28
2022-09-23T09:28:01.452Z,63.41
2022-09-23T09:30:28.385Z,63.11
2022-09-23T09:32:58.570Z,62.76
2022-09-23T09:35:41.058Z,61.44
2022-09-23T09:38:08.036Z,59.87
2022-09-23T09:40:35.249Z,60.08
2022-09-23T09:43:04.675Z,59.04
2022-09-23T09:45:57.906Z,59.40
2022-09-23T09:48:53.757Z,59.14
2022-09-23T09:51:23.261Z,58.36
2022-09-23T09:53:53.128Z,58.65
2022-09-23T09:56:33.260Z,58.11
2022-09-23T09:59:02.138Z,56.29
2022-09-23T10:01:31.452Z,57.03
2022-09-23T10:04:05.099Z,56.99
2022-09-23T10:06:34.773Z,57.24
2022-09-23T10:09:01.848Z,56.53
2022-09-23T10:11:29.797Z,57.20
2022-09-23T10:14:00.162Z,56.89
2022-09-23T10:16:27.667Z,57.54
2022-09-23T10:18:56.951Z,57.33
2022-09-23T10:21:27.992Z,57.49
2022-09-23T10:23:58.290Z,57.96
2022-09-23T10:26:34.383Z,58.06
2022-09-23T10:29:28.031Z,59.94
2022-09-23T10:32:30.721Z,59.36
2022-09-23T10:35:13.371Z,59.79
2022-09-23T10:37:48.235Z,59.62
2022-09-23T10:40:33.746Z,59.85
2022-09-23T10:43:43.989Z,60.36
2022-09-23T10:46:39.466Z,60.33
2022-09-23T10:49:27.350Z,60.07
2022-09-23T10:51:57.006Z,59.43
2022-09-23T10:55:00.392Z,58.77
2022-09-23T10:57:45.135Z,59.12
2022-09-23T11:00:49.333Z,58.67
2022-09-23T11:03:38.631Z,58.52
2022-09-23T11:06:38.763Z,57.90
2022-09-23T11:09:25.579Z,55.64
2022-09-23T11:12:02.038Z,56.79
2022-09-23T11:15:14.465Z,55.21
2022-09-23T11:18:11.208Z,54.92
2022-09-23T11:20:54.844Z,53.78
2022-09-23T11:23:39.641Z,53.84
2022-09-23T11:26:30.573Z,55.08
2022-09-23T11:29:18.279Z,54.50
2022-09-23T11:32:06.318Z,54.39
2022-09-23T11:34:52.642Z,55.65
2022-09-23T11:37:28.155Z,55.34
2022-09-23T11:40:19.861Z,55.68
2022-09-23T11:43:13.429Z,55.82
2022-09-23T11:45:48.016Z,56.35
2022-09-23T11:48:22.009Z,55.71
2022-09-23T11:51:02.489Z,56.13
2022-09-23T11:53:36.485Z,56.68
2022-09-23T11:56:27.643Z,56.62
2022-09-23T11:59:10.280Z,56.66
2022-09-23T12:01:45.679Z,57.35
2022-09-23T12:04:53.359Z,57.47
2022-09-23T12:07:31.205Z,57.00
2022-09-23T12:10:05.662Z,57.73
2022-09-23T12:12:59.030Z,57.50
2022-09-23T12:15:53.092Z,56.64
2022-09-23T12:18:23.396Z,55.86
2022-09-23T12:21:27.099Z,57.20
2022-09-23T12:24:26.333Z,56.11
2022-09-23T12:26:59.006Z,55.64
2022-09-23T12:29:30.338Z,56.53
2022-09-23T12:31:57.177Z,55.86
2022-09-23T12:34:34.456Z,56.11
2022-09-23T12:37:04.037Z,56.83
2022-09-23T12:39:34.506Z,57.02
2022-09-23T12:42:22.812Z,56.84
2022-09-23T12:44:50.653Z,57.70
2022-09-23T12:47:28.103Z,57.20
2022-09-23T12:49:56.582Z,56.65
2022-09-23T12:52:31.851Z,55.35
2022-09-23T12:55:26.496Z,54.31
2022-09-23T12:57:53.422Z,55.83
2022-09-23T13:00:19.954Z,55.08
2022-09-23T13:03:09.224Z,56.56
2022-09-23T13:06:02.456Z,57.58
2022-09-23T13:08:29.392Z,58.02
2022-09-23T13:10:59.979Z,58.88
2022-09-23T13:13:36.429Z,59.67
2022-09-23T13:16:21.325Z,59.70
2022-09-23T13:18:54.844Z,60.80
2022-09-23T13:21:42.868Z,61.50
2022-09-23T13:24:19.365Z,61.30
2022-09-23T13:26:58.986Z,61.37
2022-09-23T13:29:42.301Z,61.75
2022-09-23T13:32:15.167Z,62.94
2022-09-23T13:34:44.411Z,64.12
2022-09-23T13:37:22.062Z,62.29
2022-09-23T13:39:49.822Z,63.03
2022-09-23T13:42:39.977Z,62.82
2022-09-23T13:45:18.219Z,62.50
2022-09-23T13:47:48.104Z,62.29
2022-09-23T13:50:18.324Z,62.17
2022-09-23T13:52:46.059Z,63.30
2022-09-23T13:55:37.540Z,62.90
2022-09-23T13:58:13.879Z,62.47
2022-09-23T14:00:40.585Z,62.21
2022-09-23T14:03:24.647Z,62.99
2022-09-23T14:05:52.911Z,63.15
2022-09-23T14:08:20.078Z,63.04
2022-09-23T14:10:47.659Z,63.17
2022-09-23T14:13:26.066Z,62.99
2022-09-23T14:15:56.157Z,63.32
2022-09-23T14:18:29.475Z,62.94
2022-09-23T14:20:56.334Z,63.54
2022-09-23T14:23:22.973Z,63.16
2022-09-23T14:25:51.389Z,64.14
2022-09-23T14:28:23.761Z,64.12
2022-09-23T14:30:57.659Z,64.33
2022-09-23T14:33:32.046Z,64.36
2022-09-23T14:36:31.903Z,64.63
2022-09-23T14:39:07.817Z,64.81
2022-09-23T14:41:38.621Z,65.23
2022-09-23T14:44:07.066Z,64.29
2022-09-23T14:46:36.990Z,64.97
2022-09-23T14:49:16.278Z,65.32
2022-09-23T14:51:53.213Z,65.82
2022-09-23T14:54:24.909Z,65.52
2022-09-23T14:56:53.064Z,65.94
2022-09-23T14:59:34.771Z,66.05
2022-09-23T15:02:02.174Z,66.04
2022-09-23T15:04:32.266Z,66.84
2022-09-23T15:07:15.754Z,67.04
2022-09-23T15:09:44.206Z,67.25
2022-09-23T15:12:21.718Z,66.84
2022-09-23T15:14:55.032Z,66.86
2022-09-23T15:17:24.330Z,65.56
2022-09-23T15:19:56.647Z,65.69
2022-09-23T15:22:25.110Z,66.28
2022-09-23T15:24:53.835Z,66.43
2022-09-23T15:27:34.436Z,66.74
2022-09-23T15:30:16.311Z,66.15
2022-09-23T15:32:44.892Z,66.85
2022-09-23T15:35:18.921Z,67.27
2022-09-23T15:37:47.311Z,66.61
2022-09-23T15:40:19.355Z,67.03
2022-09-23T15:42:52.913Z,67.66
2022-09-23T15:45:26.589Z,67.48
2022-09-23T15:47:53.767Z,67.39
2022-09-23T15:50:20.454Z,67.97
2022-09-23T15:52:47.122Z,68.36
2022-09-23T15:55:23.642Z,68.73
2022-09-23T16:15:56.374Z,72.44
2022-09-23T16:18:23.236Z,72.79
2022-09-23T16:20:50.821Z,73.26
2022-09-23T16:23:37.603Z,73.10
2022-09-23T16:26:27.802Z,73.47
2022-09-23T16:28:56.528Z,73.75
2022-09-23T16:31:25.558Z,74.13
2022-09-23T16:33:53.670Z,74.60
2022-09-23T16:36:23.047Z,74.73
2022-09-23T16:38:50.077Z,75.35
2022-09-23T16:41:16.771Z,75.49
2022-09-23T16:43:43.465Z,75.77
2022-09-23T16:46:12.662Z,76.04
2022-09-23T16:48:44.991Z,76.42
2022-09-23T16:51:29.033Z,76.96
2022-09-23T16:53:57.518Z,77.10
2022-09-23T16:56:28.828Z,77.46
2022-09-23T16:58:56.666Z,77.43
2022-09-23T17:01:46.713Z,77.58
2022-09-23T17:04:16.086Z,77.58
2022-09-23T17:06:44.334Z,76.21
2022-09-23T17:09:11.983Z,76.33
2022-09-23T17:11:38.625Z,76.39
2022-09-23T17:14:06.023Z,77.25
2022-09-23T17:16:34.816Z,76.72
2022-09-23T17:19:08.099Z,77.41
2022-09-23T17:21:35.632Z,78.50
2022-09-23T17:24:03.061Z,78.73
2022-09-23T17:26:29.982Z,80.18
2022-09-23T17:28:59.409Z,80.29
2022-09-23T17:31:26.238Z,81.81
2022-09-23T17:33:53.591Z,82.53
2022-09-23T17:36:20.805Z,83.09
2022-09-23T17:38:48.293Z,83.70
2022-09-23T17:41:15.704Z,85.02
2022-09-23T17:43:42.392Z,86.00
2022-09-23T17:46:12.970Z,86.77
2022-09-23T17:48:41.435Z,87.57
2022-09-23T17:51:14.100Z,88.15
2022-09-23T17:53:42.482Z,89.53
2022-09-23T17:56:12.471Z,90.40
2022-09-23T17:58:39.501Z,91.83
2022-09-23T18:01:20.377Z,92.89
2022-09-23T18:03:47.823Z,93.67
2022-09-23T18:06:19.851Z,94.40
2022-09-23T18:08:48.761Z,93.99
2022-09-23T18:11:36.250Z,94.55
2022-09-23T18:14:12.013Z,94.66
2022-09-23T18:16:41.109Z,95.19
2022-09-23T18:19:10.962Z,95.63
2022-09-23T18:21:41.777Z,95.94
2022-09-23T18:24:31.242Z,96.12
2022-09-23T18:26:59.615Z,96.96
2022-09-23T18:29:26.455Z,97.94
2022-09-23T18:31:53.233Z,97.95
2022-09-23T18:34:20.458Z,98.25
2022-09-23T18:36:47.324Z,98.87
2022-09-23T18:39:14.063Z,98.41
2022-09-23T18:41:41.225Z,98.59
2022-09-23T18:44:08.977Z,98.89
2022-09-23T18:46:35.764Z,99.38
2022-09-23T18:49:21.251Z,99.35
2022-09-23T18:51:47.894Z,99.50
2022-09-23T18:54:14.636Z,99.54
2022-09-23T18:56:43.473Z,100.00
2022-09-23T18:59:19.421Z,100.00
2022-09-23T19:01:48.297Z,100.00
2022-09-23T19:04:17.926Z,99.91
2022-09-23T19:06:44.649Z,100.00
2022-09-23T19:09:12.234Z,100.00
2022-09-23T19:11:39.433Z,99.34
2022-09-23T19:14:09.866Z,100.00
2022-09-23T19:16:38.290Z,99.62
2022-09-23T19:19:05.837Z,100.00
2022-09-23T19:21:33.442Z,100.00
2022-09-23T19:24:06.068Z,100.00
2022-09-23T19:26:38.405Z,100.00
2022-09-23T19:29:08.025Z,100.00
2022-09-23T19:31:41.123Z,100.00
2022-09-23T19:34:13.177Z,100.00
2022-09-23T19:36:42.205Z,100.00
2022-09-23T19:39:18.009Z,100.00
2022-09-23T19:41:45.337Z,100.00
2022-09-23T19:44:12.191Z,100.00
2022-09-23T19:46:45.254Z,100.00
2022-09-23T19:49:13.123Z,100.00
2022-09-23T19:51:40.348Z,100.00
2022-09-23T19:54:07.983Z,100.00
2022-09-23T19:56:35.081Z,100.00
2022-09-23T19:59:05.854Z,100.00
2022-09-23T20:01:33.628Z,100.00
2022-09-23T20:04:00.722Z,100.00
2022-09-23T20:06:31.937Z,100.00
2022-09-23T20:09:00.732Z,100.00
2022-09-23T20:11:28.775Z,100.00
2022-09-23T20:14:02.187Z,100.00
2022-09-23T20:16:32.525Z,100.00
2022-09-23T20:19:00.268Z,100.00
2022-09-23T20:21:28.374Z,100.00
2022-09-23T20:23:55.531Z,100.00
2022-09-23T20:26:40.907Z,100.00
2022-09-23T20:29:08.936Z,100.00
2022-09-23T20:31:35.812Z,100.00
2022-09-23T20:34:09.193Z,100.00
2022-09-23T20:36:36.242Z,100.00
2022-09-23T20:39:09.006Z,100.00
2022-09-23T20:41:37.885Z,100.00
2022-09-23T20:44:08.150Z,100.00
2022-09-23T20:46:35.922Z,100.00
2022-09-23T20:49:03.900Z,100.00
2022-09-23T20:51:33.246Z,100.00
2022-09-23T20:54:00.544Z,100.00
2022-09-23T20:56:27.652Z,100.00
2022-09-23T20:58:54.573Z,100.00
2022-09-23T21:01:22.005Z,100.00
2022-09-23T21:03:50.164Z,100.00
2022-09-23T21:06:19.031Z,100.00
2022-09-23T21:08:46.503Z,100.00
2022-09-23T21:11:17.598Z,100.00
2022-09-23T21:13:49.144Z,100.00
2022-09-23T21:16:17.792Z,100.00
2022-09-23T21:18:45.638Z,100.00
2022-09-23T21:21:14.118Z,100.00
2022-09-23T21:23:42.715Z,100.00
2022-09-23T21:26:12.114Z,100.00
2022-09-23T21:28:40.960Z,100.00
2022-09-23T21:31:10.886Z,100.00
2022-09-23T21:33:37.867Z,100.00
2022-09-23T21:36:06.780Z,100.00
2022-09-23T21:38:39.247Z,100.00
2022-09-23T21:41:08.165Z,100.00
2022-09-23T21:43:38.472Z,100.00
2022-09-23T21:46:07.719Z,100.00
2022-09-23T21:48:36.941Z,100.00
2022-09-23T21:51:12.060Z,100.00
2022-09-23T21:53:39.649Z,100.00
2022-09-23T21:56:09.534Z,100.00
2022-09-23T21:58:38.022Z,100.00
2022-09-23T22:01:13.660Z,100.00
2022-09-23T22:03:40.571Z,100.00
2022-09-23T22:06:10.319Z,100.00
2022-09-23T22:08:39.362Z,100.00
2022-09-23T22:11:28.941Z,100.00
2022-09-23T22:13:56.381Z,100.00
2022-09-23T22:16:23.520Z,100.00
2022-09-23T22:18:52.176Z,100.00
2022-09-23T22:21:20.167Z,100.00
2022-09-23T22:23:46.883Z,100.00
2022-09-23T22:26:13.546Z,100.00
2022-09-23T22:28:58.508Z,100.00
2022-09-23T22:31:43.425Z,100.00
2022-09-23T22:34:25.510Z,100.00
2022-09-23T22:36:58.726Z,100.00
2022-09-23T22:39:26.458Z,100.00
2022-09-23T22:41:53.153Z,100.00
2022-09-23T22:44:20.417Z,100.00
2022-09-23T22:46:48.014Z,100.00
2022-09-23T22:49:15.478Z,100.00
2022-09-23T22:51:45.550Z,100.00
2022-09-23T22:54:12.372Z,100.00
2022-09-23T22:56:39.240Z,100.00
2022-09-23T22:59:07.736Z,100.00
2022-09-23T23:01:35.492Z,100.00
2022-09-23T23:04:02.745Z,100.00
2022-09-23T23:06:36.917Z,100.00
2022-09-23T23:09:08.828Z,100.00
2022-09-23T23:11:35.828Z,100.00
2022-09-23T23:14:03.201Z,100.00
2022-09-23T23:16:33.750Z,100.00
2022-09-23T23:19:02.210Z,100.00
2022-09-23T23:21:28.850Z,100.00
2022-09-23T23:23:55.534Z,100.00
2022-09-23T23:26:26.551Z,100.00
2022-09-23T23:28:54.398Z,100.00
2022-09-23T23:31:22.140Z,100.00
2022-09-23T23:33:49.505Z,100.00
2022-09-23T23:36:18.697Z,100.00
2022-09-23T23:38:47.531Z,100.00
2022-09-23T23:41:17.348Z,100.00
2022-09-23T23:43:46.851Z,100.00
2022-09-23T23:46:14.902Z,100.00
2022-09-23T23:48:43.849Z,100.00
2022-09-23T23:51:11.668Z,100.00
2022-09-23T23:53:40.063Z,100.00
2022-09-23T23:56:10.136Z,100.00
2022-09-23T23:58:37.317Z,100.00
